createdAt,value
2017-10-22T00:00:03.053Z,1002.2
2017-10-22T00:01:05.137Z,1002.2
2017-10-22T00:02:07.213Z,1002.2
2017-10-22T00:03:09.297Z,1002.2
2017-10-22T00:04:11.624Z,1002.2
2017-10-22T00:05:13.712Z,1002.2
2017-10-22T00:06:15.885Z,1002.2
2017-10-22T00:07:17.908Z,1002.3
2017-10-22T00:08:20.229Z,1002.2
2017-10-22T00:09:21.931Z,1002.2
2017-10-22T00:10:23.514Z,1002.2
2017-10-22T00:11:25.364Z,1002.2
2017-10-22T00:12:27.309Z,1002.2
2017-10-22T00:13:29.352Z,1002.2
2017-10-22T00:14:31.512Z,1002.2
2017-10-22T00:15:33.125Z,1002.2
2017-10-22T00:16:35.318Z,1002.2
2017-10-22T00:17:37.461Z,1002.2
2017-10-22T00:18:39.383Z,1002.2
2017-10-22T00:19:41.540Z,1002.1
2017-10-22T00:20:43.198Z,1002.1
2017-10-22T00:21:45.191Z,1002.2
2017-10-22T00:22:47.243Z,1002.2
2017-10-22T00:23:49.437Z,1002.2
2017-10-22T00:24:51.458Z,1002.1
2017-10-22T00:25:52.978Z,1002.2
2017-10-22T00:26:55.065Z,1002.2
2017-10-22T00:27:56.572Z,1002.2
2017-10-22T00:28:58.520Z,1002.2
2017-10-22T00:30:00.596Z,1002.2
2017-10-22T00:31:02.726Z,1002.2
2017-10-22T00:32:04.856Z,1002.1
2017-10-22T00:33:06.847Z,1002.1
2017-10-22T00:34:08.880Z,1002.1
2017-10-22T00:35:11.006Z,1002.1
2017-10-22T00:36:12.515Z,1002.1
2017-10-22T00:37:14.118Z,1002.1
2017-10-22T00:38:16.167Z,1002.1
2017-10-22T00:39:18.235Z,1002.1
2017-10-22T00:40:19.664Z,1002.0
2017-10-22T00:41:21.693Z,1002.0
2017-10-22T00:42:23.723Z,1002.0
2017-10-22T00:43:25.349Z,1002.1
2017-10-22T00:44:26.874Z,1002.1
2017-10-22T00:45:28.963Z,1002.0
2017-10-22T00:46:30.647Z,1002.1
2017-10-22T00:47:32.873Z,1002.1
2017-10-22T00:48:34.988Z,1002.0
2017-10-22T00:49:36.535Z,1002.1
2017-10-22T00:50:38.032Z,1002.0
2017-10-22T00:51:39.809Z,1002.0
2017-10-22T00:52:41.980Z,1001.9
2017-10-22T00:53:43.922Z,1002.0
2017-10-22T00:54:45.641Z,1002.0
2017-10-22T00:55:47.381Z,1002.0
2017-10-22T00:56:49.409Z,1001.9
2017-10-22T00:57:51.438Z,1001.9
2017-10-22T00:58:53.564Z,1001.9
2017-10-22T00:59:55.111Z,1001.9
2017-10-22T01:00:56.632Z,1001.9
2017-10-22T01:01:58.608Z,1001.8
2017-10-22T01:03:00.780Z,1001.8
2017-10-22T01:04:02.371Z,1001.9
2017-10-22T01:05:03.836Z,1001.9
2017-10-22T01:06:05.489Z,1001.9
2017-10-22T01:07:07.100Z,1001.9
2017-10-22T01:08:09.189Z,1001.9
2017-10-22T01:09:10.627Z,1001.8
2017-10-22T01:10:12.723Z,1001.8
2017-10-22T01:11:14.790Z,1001.8
2017-10-22T01:12:16.341Z,1001.8
2017-10-22T01:13:18.561Z,1001.8
2017-10-22T01:14:20.822Z,1001.8
2017-10-22T01:15:22.377Z,1001.8
2017-10-22T01:16:24.330Z,1001.8
2017-10-22T01:17:26.026Z,1001.7
2017-10-22T01:18:27.982Z,1001.7
2017-10-22T01:19:30.129Z,1001.7
2017-10-22T01:20:32.081Z,1001.6
2017-10-22T01:21:34.168Z,1001.6
2017-10-22T01:22:36.209Z,1001.6
2017-10-22T01:23:38.192Z,1001.7
2017-10-22T01:24:40.355Z,1001.6
2017-10-22T01:25:41.856Z,1001.6
2017-10-22T01:26:43.314Z,1001.6
2017-10-22T01:27:45.248Z,1001.6
2017-10-22T01:28:46.656Z,1001.6
2017-10-22T01:29:48.746Z,1001.6
2017-10-22T01:30:50.224Z,1001.5
2017-10-22T01:31:51.725Z,1001.5
2017-10-22T01:32:53.171Z,1001.7
2017-10-22T01:33:54.661Z,1001.5
2017-10-22T01:34:56.053Z,1001.6
2017-10-22T01:35:57.465Z,1001.5
2017-10-22T01:36:58.950Z,1001.6
2017-10-22T01:38:00.483Z,1001.5
2017-10-22T01:39:01.971Z,1001.5
2017-10-22T01:40:04.032Z,1001.6
2017-10-22T01:41:05.995Z,1001.6
2017-10-22T01:42:08.003Z,1001.6
2017-10-22T01:43:10.089Z,1001.6
2017-10-22T01:44:12.520Z,1001.6
2017-10-22T01:45:14.055Z,1001.6
2017-10-22T01:46:16.019Z,1001.6
2017-10-22T01:47:18.237Z,1001.6
2017-10-22T01:48:19.917Z,1001.6
2017-10-22T01:49:21.672Z,1001.6
2017-10-22T01:50:23.685Z,1001.6
2017-10-22T01:51:25.856Z,1001.6
2017-10-22T01:52:27.957Z,1001.7
2017-10-22T01:53:30.033Z,1001.6
2017-10-22T01:54:31.826Z,1001.5
2017-10-22T01:55:33.875Z,1001.5
2017-10-22T01:56:36.251Z,1001.5
2017-10-22T01:57:37.918Z,1001.5
2017-10-22T01:58:39.343Z,1001.5
2017-10-22T01:59:41.342Z,1001.4
2017-10-22T02:00:43.392Z,1001.4
2017-10-22T02:01:45.545Z,1001.4
2017-10-22T02:02:47.535Z,1001.4
2017-10-22T02:03:49.748Z,1001.4
2017-10-22T02:04:51.992Z,1001.4
2017-10-22T02:05:53.984Z,1001.4
2017-10-22T02:06:55.563Z,1001.4
2017-10-22T02:07:57.586Z,1001.4
2017-10-22T02:08:59.078Z,1001.5
2017-10-22T02:10:01.387Z,1001.4
2017-10-22T02:11:02.970Z,1001.4
2017-10-22T02:12:05.518Z,1001.4
2017-10-22T02:13:07.552Z,1001.4
2017-10-22T02:14:09.660Z,1001.4
2017-10-22T02:15:11.306Z,1001.4
2017-10-22T02:16:13.525Z,1001.4
2017-10-22T02:17:15.581Z,1001.4
2017-10-22T02:18:17.259Z,1001.4
2017-10-22T02:19:18.818Z,1001.4
2017-10-22T02:20:20.704Z,1001.4
2017-10-22T02:21:22.202Z,1001.4
2017-10-22T02:22:24.318Z,1001.4
2017-10-22T02:23:26.882Z,1001.4
2017-10-22T02:24:29.013Z,1001.4
2017-10-22T02:25:30.597Z,1001.3
2017-10-22T02:26:32.917Z,1001.4
2017-10-22T02:27:35.226Z,1001.3
2017-10-22T02:28:36.935Z,1001.3
2017-10-22T02:29:38.611Z,1001.3
2017-10-22T02:30:40.100Z,1001.4
2017-10-22T02:31:42.052Z,1001.3
2017-10-22T02:32:44.203Z,1001.3
2017-10-22T02:33:45.707Z,1001.3
2017-10-22T02:34:47.331Z,1001.2
2017-10-22T02:35:48.896Z,1001.3
2017-10-22T02:36:50.875Z,1001.2
2017-10-22T02:37:52.447Z,1001.2
2017-10-22T02:38:53.971Z,1001.3
2017-10-22T02:39:55.694Z,1001.3
2017-10-22T02:40:57.764Z,1001.2
2017-10-22T02:41:59.991Z,1001.2
2017-10-22T02:43:02.070Z,1001.2
2017-10-22T02:44:03.746Z,1001.2
2017-10-22T02:45:05.213Z,1001.2
2017-10-22T02:46:06.907Z,1001.2
2017-10-22T02:47:09.043Z,1001.3
2017-10-22T02:48:11.194Z,1001.3
2017-10-22T02:49:13.614Z,1001.3
2017-10-22T02:50:15.493Z,1001.3
2017-10-22T02:51:17.535Z,1001.3
2017-10-22T02:52:19.731Z,1001.2
2017-10-22T02:53:21.808Z,1001.3
2017-10-22T02:54:23.915Z,1001.2
2017-10-22T02:55:26.098Z,1001.2
2017-10-22T02:56:28.929Z,1001.2
2017-10-22T02:57:30.972Z,1001.3
2017-10-22T02:58:32.514Z,1001.3
2017-10-22T02:59:34.567Z,1001.3
2017-10-22T03:00:36.688Z,1001.3
2017-10-22T03:01:38.706Z,1001.3
2017-10-22T03:02:40.601Z,1001.3
2017-10-22T03:03:42.304Z,1001.2
2017-10-22T03:04:43.982Z,1001.3
2017-10-22T03:05:46.022Z,1001.3
2017-10-22T03:06:47.899Z,1001.1
2017-10-22T03:07:50.254Z,1001.2
2017-10-22T03:08:52.254Z,1001.2
2017-10-22T03:09:54.174Z,1001.1
2017-10-22T03:10:55.920Z,1001.0
2017-10-22T03:11:57.598Z,1001.0
2017-10-22T03:13:00.148Z,1001.0
2017-10-22T03:14:02.004Z,1001.1
2017-10-22T03:15:03.726Z,1001.1
2017-10-22T03:16:05.211Z,1001.0
2017-10-22T03:17:06.858Z,1001.0
2017-10-22T03:18:08.512Z,1001.1
2017-10-22T03:19:10.420Z,1001.0
2017-10-22T03:20:12.603Z,1001.0
2017-10-22T03:21:14.689Z,1001.0
2017-10-22T03:22:16.447Z,1001.0
2017-10-22T03:23:18.147Z,1000.9
2017-10-22T03:24:19.957Z,1000.9
2017-10-22T03:25:21.792Z,1000.9
2017-10-22T03:26:23.611Z,1000.8
2017-10-22T03:27:24.993Z,1000.8
2017-10-22T03:28:26.510Z,1000.9
2017-10-22T03:29:28.209Z,1000.8
2017-10-22T03:30:29.654Z,1000.9
2017-10-22T03:31:31.284Z,1000.8
2017-10-22T03:32:33.440Z,1000.8
2017-10-22T03:33:35.355Z,1000.8
2017-10-22T03:34:37.341Z,1000.8
2017-10-22T03:35:39.011Z,1000.8
2017-10-22T03:36:41.015Z,1000.9
2017-10-22T03:37:43.035Z,1000.9
2017-10-22T03:38:44.924Z,1000.9
2017-10-22T03:39:46.729Z,1000.8
2017-10-22T03:40:48.717Z,1000.9
2017-10-22T03:41:50.860Z,1000.8
2017-10-22T03:42:52.566Z,1000.8
2017-10-22T03:43:54.621Z,1000.9
2017-10-22T03:44:56.657Z,1000.8
2017-10-22T03:45:58.273Z,1000.8
2017-10-22T03:46:59.949Z,1000.8
2017-10-22T03:48:01.927Z,1000.9
2017-10-22T03:49:03.591Z,1000.7
2017-10-22T03:50:05.486Z,1000.7
2017-10-22T03:51:07.473Z,1000.8
2017-10-22T03:52:09.562Z,1000.8
2017-10-22T03:53:11.523Z,1000.9
2017-10-22T03:54:13.276Z,1000.9
2017-10-22T03:55:15.155Z,1000.8
2017-10-22T03:56:16.753Z,1000.7
2017-10-22T03:57:18.197Z,1000.8
2017-10-22T03:58:19.940Z,1000.9
2017-10-22T03:59:21.607Z,1000.8
2017-10-22T04:00:23.408Z,1000.8
2017-10-22T04:01:25.214Z,1000.8
2017-10-22T04:02:27.118Z,1000.7
2017-10-22T04:03:28.821Z,1000.7
2017-10-22T04:04:30.302Z,1000.8
2017-10-22T04:05:32.407Z,1000.8
2017-10-22T04:06:34.348Z,1000.8
2017-10-22T04:07:36.040Z,1000.8
2017-10-22T04:08:37.726Z,1000.9
2017-10-22T04:09:39.297Z,1000.8
2017-10-22T04:10:41.564Z,1000.8
2017-10-22T04:11:43.557Z,1000.8
2017-10-22T04:12:45.412Z,1000.7
2017-10-22T04:13:47.084Z,1000.9
2017-10-22T04:14:48.808Z,1000.8
2017-10-22T04:15:50.692Z,1000.8
2017-10-22T04:16:52.291Z,1000.8
2017-10-22T04:17:54.003Z,1000.8
2017-10-22T04:18:55.913Z,1000.8
2017-10-22T04:20:38.364Z,1000.8
2017-10-22T04:21:39.764Z,1000.8
2017-10-22T04:22:41.567Z,1000.8
2017-10-22T04:23:43.746Z,1000.8
2017-10-22T04:24:45.461Z,1000.7
2017-10-22T04:25:47.147Z,1000.7
2017-10-22T04:26:48.920Z,1000.8
2017-10-22T04:27:50.714Z,1000.8
2017-10-22T04:28:52.560Z,1000.7
2017-10-22T04:29:54.495Z,1000.7
2017-10-22T04:30:56.311Z,1000.7
2017-10-22T04:31:58.048Z,1000.7
2017-10-22T04:32:59.777Z,1000.7
2017-10-22T04:34:01.689Z,1000.7
2017-10-22T04:35:03.403Z,1000.8
2017-10-22T04:36:05.533Z,1000.8
2017-10-22T04:37:07.383Z,1000.8
2017-10-22T04:38:08.994Z,1000.8
2017-10-22T04:39:11.078Z,1000.8
2017-10-22T04:40:12.911Z,1000.7
2017-10-22T04:41:14.928Z,1000.7
2017-10-22T04:42:16.605Z,1000.7
2017-10-22T04:43:18.271Z,1000.8
2017-10-22T04:44:19.975Z,1000.7
2017-10-22T04:45:21.794Z,1000.7
2017-10-22T04:46:23.673Z,1000.7
2017-10-22T04:47:25.606Z,1000.6
2017-10-22T04:48:27.309Z,1000.7
2017-10-22T04:49:29.036Z,1000.6
2017-10-22T04:50:30.719Z,1000.7
2017-10-22T04:51:32.600Z,1000.6
2017-10-22T04:52:34.327Z,1000.7
2017-10-22T04:53:36.050Z,1000.8
2017-10-22T04:54:38.241Z,1000.7
2017-10-22T04:55:39.963Z,1000.8
2017-10-22T04:56:41.780Z,1000.7
2017-10-22T04:57:43.235Z,1000.7
2017-10-22T04:58:44.925Z,1000.7
2017-10-22T04:59:46.994Z,1000.7
2017-10-22T05:00:48.962Z,1000.7
2017-10-22T05:01:50.759Z,1000.7
2017-10-22T05:02:53.601Z,1000.7
2017-10-22T05:03:55.331Z,1000.6
2017-10-22T05:04:57.206Z,1000.7
2017-10-22T05:05:58.968Z,1000.6
2017-10-22T05:07:00.923Z,1000.6
2017-10-22T05:08:02.621Z,1000.6
2017-10-22T05:09:04.954Z,1000.6
2017-10-22T05:10:07.018Z,1000.6
2017-10-22T05:11:09.055Z,1000.6
2017-10-22T05:12:10.512Z,1000.6
2017-10-22T05:13:12.215Z,1000.6
2017-10-22T05:14:14.016Z,1000.6
2017-10-22T05:15:16.008Z,1000.7
2017-10-22T05:16:17.644Z,1000.7
2017-10-22T05:17:19.423Z,1000.6
2017-10-22T05:18:21.130Z,1000.6
2017-10-22T05:19:22.825Z,1000.7
2017-10-22T05:20:24.528Z,1000.7
2017-10-22T05:21:26.233Z,1000.7
2017-10-22T05:22:28.030Z,1000.7
2017-10-22T05:23:29.758Z,1000.7
2017-10-22T05:24:31.841Z,1000.8
2017-10-22T05:25:33.521Z,1000.7
2017-10-22T05:26:34.976Z,1000.7
2017-10-22T05:27:36.407Z,1000.8
2017-10-22T05:28:37.800Z,1000.8
2017-10-22T05:29:39.214Z,1000.7
2017-10-22T05:30:40.617Z,1000.8
2017-10-22T05:31:41.998Z,1000.7
2017-10-22T05:32:43.366Z,1000.8
2017-10-22T05:33:44.776Z,1000.7
2017-10-22T05:34:46.512Z,1000.8
2017-10-22T05:35:47.911Z,1000.8
2017-10-22T05:36:49.320Z,1000.8
2017-10-22T05:37:50.693Z,1000.8
2017-10-22T05:38:52.066Z,1000.8
2017-10-22T05:39:53.434Z,1000.7
2017-10-22T05:40:54.808Z,1000.8
2017-10-22T05:41:56.186Z,1000.7
2017-10-22T05:42:57.579Z,1000.6
2017-10-22T05:43:59.174Z,1000.7
2017-10-22T05:45:00.580Z,1000.6
2017-10-22T05:46:01.940Z,1000.6
2017-10-22T05:47:03.356Z,1000.6
2017-10-22T05:48:04.922Z,1000.6
2017-10-22T05:49:06.441Z,1000.5
2017-10-22T05:50:07.822Z,1000.3
2017-10-22T05:51:09.188Z,1000.5
2017-10-22T05:52:10.566Z,1000.5
2017-10-22T05:53:11.941Z,1000.5
2017-10-22T05:54:13.365Z,1000.4
2017-10-22T05:55:14.777Z,1000.4
2017-10-22T05:56:16.140Z,1000.4
2017-10-22T05:57:17.516Z,1000.4
2017-10-22T05:58:18.919Z,1000.3
2017-10-22T05:59:20.290Z,1000.4
2017-10-22T06:00:21.666Z,1000.4
2017-10-22T06:01:23.043Z,1000.4
2017-10-22T06:02:24.427Z,1000.4
2017-10-22T06:03:25.817Z,1000.4
2017-10-22T06:04:27.189Z,1000.4
2017-10-22T06:05:28.579Z,1000.4
2017-10-22T06:06:29.962Z,1000.4
2017-10-22T06:07:31.337Z,1000.3
2017-10-22T06:08:32.699Z,1000.4
2017-10-22T06:09:34.122Z,1000.4
2017-10-22T06:10:35.492Z,1000.4
2017-10-22T06:11:36.860Z,1000.3
2017-10-22T06:12:38.228Z,1000.3
2017-10-22T06:13:39.595Z,1000.3
2017-10-22T06:14:40.967Z,1000.4
2017-10-22T06:15:42.338Z,1000.4
2017-10-22T06:16:43.719Z,1000.3
2017-10-22T06:17:45.118Z,1000.4
2017-10-22T06:18:46.493Z,1000.4
2017-10-22T06:19:47.864Z,1000.5
2017-10-22T06:20:49.249Z,1000.5
2017-10-22T06:21:50.620Z,1000.3
2017-10-22T06:22:51.994Z,1000.4
2017-10-22T06:23:53.369Z,1000.4
2017-10-22T06:24:54.743Z,1000.5
2017-10-22T06:25:56.111Z,1000.4
2017-10-22T06:26:57.482Z,1000.3
2017-10-22T06:27:58.854Z,1000.4
2017-10-22T06:29:00.224Z,1000.4
2017-10-22T06:30:01.600Z,1000.3
2017-10-22T06:31:02.970Z,1000.4
2017-10-22T06:32:04.339Z,1000.4
2017-10-22T06:33:05.712Z,1000.5
2017-10-22T06:34:07.086Z,1000.4
2017-10-22T06:35:08.460Z,1000.4
2017-10-22T06:36:09.842Z,1000.4
2017-10-22T06:37:11.216Z,1000.3
2017-10-22T06:38:12.586Z,1000.4
2017-10-22T06:39:13.950Z,1000.4
2017-10-22T06:40:15.320Z,1000.4
2017-10-22T06:41:16.695Z,1000.4
2017-10-22T06:42:18.066Z,1000.4
2017-10-22T06:43:19.435Z,1000.5
2017-10-22T06:44:20.807Z,1000.5
2017-10-22T06:45:22.180Z,1000.4
2017-10-22T06:46:23.552Z,1000.5
2017-10-22T06:47:24.927Z,1000.5
2017-10-22T06:48:26.298Z,1000.5
2017-10-22T06:49:27.672Z,1000.5
2017-10-22T06:50:29.050Z,1000.5
2017-10-22T06:51:30.421Z,1000.5
2017-10-22T06:52:31.789Z,1000.5
2017-10-22T06:53:33.158Z,1000.5
2017-10-22T06:54:34.541Z,1000.5
2017-10-22T06:55:35.915Z,1000.6
2017-10-22T06:56:37.285Z,1000.5
2017-10-22T06:57:38.662Z,1000.5
2017-10-22T06:58:40.037Z,1000.5
2017-10-22T06:59:41.407Z,1000.5
2017-10-22T07:00:42.795Z,1000.6
2017-10-22T07:01:44.161Z,1000.6
2017-10-22T07:02:45.540Z,1000.6
2017-10-22T07:03:46.908Z,1000.6
2017-10-22T07:04:48.282Z,1000.5
2017-10-22T07:05:49.658Z,1000.6
2017-10-22T07:06:51.034Z,1000.5
2017-10-22T07:07:52.420Z,1000.7
2017-10-22T07:08:53.806Z,1000.6
2017-10-22T07:09:55.172Z,1000.5
2017-10-22T07:10:56.593Z,1000.6
2017-10-22T07:11:57.964Z,1000.6
2017-10-22T07:12:59.356Z,1000.7
2017-10-22T07:14:00.728Z,1000.6
2017-10-22T07:15:02.108Z,1000.6
2017-10-22T07:16:03.486Z,1000.6
2017-10-22T07:17:04.878Z,1000.7
2017-10-22T07:18:06.265Z,1000.7
2017-10-22T07:19:07.647Z,1000.6
2017-10-22T07:20:09.334Z,1000.7
2017-10-22T07:21:10.715Z,1000.7
2017-10-22T07:22:12.086Z,1000.6
2017-10-22T07:23:13.457Z,1000.8
2017-10-22T07:24:14.831Z,1000.7
2017-10-22T07:25:16.216Z,1000.7
2017-10-22T07:26:17.594Z,1000.7
2017-10-22T07:27:18.969Z,1000.7
2017-10-22T07:28:20.345Z,1000.8
2017-10-22T07:29:21.727Z,1000.8
2017-10-22T07:30:23.125Z,1000.8
2017-10-22T07:31:24.507Z,1000.8
2017-10-22T07:32:25.880Z,1000.8
2017-10-22T07:33:27.258Z,1000.8
2017-10-22T07:34:28.641Z,1000.7
2017-10-22T07:35:30.012Z,1000.7
2017-10-22T07:36:31.380Z,1000.8
2017-10-22T07:37:32.775Z,1000.7
2017-10-22T07:38:34.197Z,1000.7
2017-10-22T07:39:35.570Z,1000.8
2017-10-22T07:40:37.023Z,1000.9
2017-10-22T07:41:38.400Z,1000.9
2017-10-22T07:42:39.781Z,1000.9
2017-10-22T07:43:41.224Z,1000.9
2017-10-22T07:44:42.597Z,1000.9
2017-10-22T07:45:44.001Z,1000.9
2017-10-22T07:46:45.362Z,1000.9
2017-10-22T07:47:46.739Z,1000.9
2017-10-22T07:48:48.121Z,1000.9
2017-10-22T07:49:49.500Z,1000.9
2017-10-22T07:50:50.878Z,1000.9
2017-10-22T07:51:52.258Z,1000.9
2017-10-22T07:52:53.654Z,1000.9
2017-10-22T07:53:55.016Z,1001.0
2017-10-22T07:54:56.393Z,1000.9
2017-10-22T07:55:57.841Z,1001.0
2017-10-22T07:56:59.288Z,1001.0
2017-10-22T07:58:00.659Z,1001.0
2017-10-22T07:59:02.048Z,1001.0
2017-10-22T08:00:03.460Z,1001.0
2017-10-22T08:01:04.837Z,1001.0
2017-10-22T08:02:06.241Z,1001.0
2017-10-22T08:03:07.715Z,1001.0
2017-10-22T08:04:09.252Z,1001.0
2017-10-22T08:05:10.651Z,1001.0
2017-10-22T08:06:12.059Z,1001.1
2017-10-22T08:07:13.489Z,1001.0
2017-10-22T08:08:14.934Z,1001.1
2017-10-22T08:09:16.318Z,1001.1
2017-10-22T08:10:17.795Z,1001.1
2017-10-22T08:11:19.341Z,1001.1
2017-10-22T08:12:20.741Z,1001.2
2017-10-22T08:13:22.136Z,1001.1
2017-10-22T08:15:04.501Z,1001.2
2017-10-22T08:16:05.871Z,1001.1
2017-10-22T08:17:07.252Z,1001.1
2017-10-22T08:18:08.625Z,1001.2
2017-10-22T08:19:10.010Z,1001.1
2017-10-22T08:20:11.447Z,1001.1
2017-10-22T08:21:12.858Z,1001.2
2017-10-22T08:22:14.268Z,1001.2
2017-10-22T08:23:15.667Z,1001.2
2017-10-22T08:24:17.052Z,1001.2
2017-10-22T08:25:18.448Z,1001.3
2017-10-22T08:26:20.148Z,1001.4
2017-10-22T08:27:21.959Z,1001.2
2017-10-22T08:28:23.995Z,1001.2
2017-10-22T08:29:25.440Z,1001.2
2017-10-22T08:30:26.847Z,1001.2
2017-10-22T08:31:28.239Z,1001.1
2017-10-22T08:32:29.708Z,1001.2
2017-10-22T08:33:31.143Z,1001.2
2017-10-22T08:34:32.657Z,1001.1
2017-10-22T08:35:34.093Z,1001.2
2017-10-22T08:36:35.757Z,1001.2
2017-10-22T08:37:37.242Z,1001.2
2017-10-22T08:38:38.748Z,1001.3
2017-10-22T08:39:40.581Z,1001.3
2017-10-22T08:40:42.063Z,1001.3
2017-10-22T08:41:43.603Z,1001.4
2017-10-22T08:42:45.351Z,1001.4
2017-10-22T08:43:47.099Z,1001.3
2017-10-22T08:44:48.742Z,1001.3
2017-10-22T08:45:50.540Z,1001.3
2017-10-22T08:46:52.208Z,1001.3
2017-10-22T08:47:54.182Z,1001.3
2017-10-22T08:48:55.861Z,1001.3
2017-10-22T08:49:57.498Z,1001.2
2017-10-22T08:50:59.260Z,1001.2
2017-10-22T08:52:01.241Z,1001.3
2017-10-22T08:53:03.354Z,1001.3
2017-10-22T08:54:05.404Z,1001.2
2017-10-22T08:55:07.139Z,1001.2
2017-10-22T08:56:09.356Z,1001.3
2017-10-22T08:57:10.832Z,1001.2
2017-10-22T08:58:12.324Z,1001.3
2017-10-22T08:59:13.771Z,1001.3
2017-10-22T09:00:15.247Z,1001.3
2017-10-22T09:01:58.360Z,1001.3
2017-10-22T09:03:00.737Z,1001.3
2017-10-22T09:04:02.761Z,1001.3
2017-10-22T09:05:04.248Z,1001.3
2017-10-22T09:06:06.057Z,1001.3
2017-10-22T09:07:07.776Z,1001.3
2017-10-22T09:08:10.106Z,1001.3
2017-10-22T09:09:12.164Z,1001.4
2017-10-22T09:10:13.670Z,1001.3
2017-10-22T09:11:15.785Z,1001.4
2017-10-22T09:12:17.712Z,1001.4
2017-10-22T09:13:20.001Z,1001.5
2017-10-22T09:14:21.942Z,1001.5
2017-10-22T09:15:23.570Z,1001.4
2017-10-22T09:16:25.118Z,1001.5
2017-10-22T09:17:27.191Z,1001.6
2017-10-22T09:18:29.094Z,1001.6
2017-10-22T09:19:31.163Z,1001.5
2017-10-22T09:20:33.234Z,1001.3
2017-10-22T09:21:34.994Z,1001.5
2017-10-22T09:22:36.568Z,1001.5
2017-10-22T09:23:38.631Z,1001.6
2017-10-22T09:24:40.778Z,1001.5
2017-10-22T09:25:42.851Z,1001.4
2017-10-22T09:26:44.976Z,1001.5
2017-10-22T09:27:46.913Z,1001.5
2017-10-22T09:28:49.069Z,1001.4
2017-10-22T09:29:50.638Z,1001.5
2017-10-22T09:30:52.639Z,1001.6
2017-10-22T09:31:54.847Z,1001.5
2017-10-22T09:32:56.316Z,1001.5
2017-10-22T09:33:58.320Z,1001.6
2017-10-22T09:35:53.321Z,1001.6
2017-10-22T09:36:54.712Z,1001.6
2017-10-22T09:37:56.244Z,1001.6
2017-10-22T09:38:58.342Z,1001.5
2017-10-22T09:40:00.553Z,1001.5
2017-10-22T09:41:02.282Z,1001.5
2017-10-22T09:42:03.980Z,1001.5
2017-10-22T09:43:06.047Z,1001.4
2017-10-22T09:44:08.334Z,1001.6
2017-10-22T09:45:10.109Z,1001.5
2017-10-22T09:46:12.231Z,1001.6
2017-10-22T09:47:14.028Z,1001.6
2017-10-22T09:48:15.845Z,1001.6
2017-10-22T09:49:18.026Z,1001.6
2017-10-22T09:50:20.147Z,1001.6
2017-10-22T09:51:22.248Z,1001.6
2017-10-22T09:52:24.456Z,1001.6
2017-10-22T09:53:26.774Z,1001.7
2017-10-22T09:54:28.824Z,1001.6
2017-10-22T09:55:30.700Z,1001.6
2017-10-22T09:56:32.780Z,1001.7
2017-10-22T09:57:34.794Z,1001.6
2017-10-22T09:58:36.976Z,1001.5
2017-10-22T09:59:39.038Z,1001.6
2017-10-22T10:00:41.076Z,1001.6
2017-10-22T10:01:43.165Z,1001.5
2017-10-22T10:02:45.534Z,1001.5
2017-10-22T10:03:47.973Z,1001.6
2017-10-22T10:04:50.085Z,1001.7
2017-10-22T10:05:52.293Z,1001.6
2017-10-22T10:06:53.935Z,1001.7
2017-10-22T10:07:55.670Z,1001.6
2017-10-22T10:08:57.220Z,1001.6
2017-10-22T10:09:59.425Z,1001.6
2017-10-22T10:11:01.478Z,1001.5
2017-10-22T10:12:03.352Z,1001.6
2017-10-22T10:13:05.465Z,1001.6
2017-10-22T10:14:07.610Z,1001.5
2017-10-22T10:15:09.493Z,1001.6
2017-10-22T10:16:11.608Z,1001.6
2017-10-22T10:17:13.732Z,1001.6
2017-10-22T10:18:15.867Z,1001.6
2017-10-22T10:19:17.356Z,1001.7
2017-10-22T10:20:19.592Z,1001.7
2017-10-22T10:21:21.575Z,1001.6
2017-10-22T10:22:23.707Z,1001.6
2017-10-22T10:23:25.742Z,1001.6
2017-10-22T10:25:08.281Z,1001.6
